createdAt,value
2023-01-06T00:01:18.498Z,98310.56
2023-01-06T00:03:53.420Z,98315.84
2023-01-06T00:06:27.603Z,98311.53
2023-01-06T00:08:56.378Z,98307.09
2023-01-06T00:11:24.698Z,98312.19
2023-01-06T00:13:52.323Z,98313.44
2023-01-06T00:16:21.317Z,98324.50
2023-01-06T00:18:49.173Z,98320.19
2023-01-06T00:21:16.812Z,98317.19
2023-01-06T00:23:44.269Z,98306.78
2023-01-06T00:26:12.123Z,98313.81
2023-01-06T00:28:40.104Z,98306.72
2023-01-06T00:31:10.038Z,98311.81
2023-01-06T00:33:38.070Z,98307.34
2023-01-06T00:36:06.976Z,98310.84
2023-01-06T00:38:36.750Z,98311.41
2023-01-06T00:41:29.269Z,98299.63
2023-01-06T00:43:58.210Z,98302.72
2023-01-06T00:46:29.645Z,98302.19
2023-01-06T00:49:06.629Z,98307.28
2023-01-06T00:51:36.679Z,98298.16
2023-01-06T00:54:06.551Z,98296.75
2023-01-06T00:56:37.788Z,98297.03
2023-01-06T00:59:06.957Z,98310.91
2023-01-06T01:01:35.665Z,98315.19
2023-01-06T01:04:03.997Z,98306.22
2023-01-06T01:06:31.855Z,98304.22
2023-01-06T01:09:00.801Z,98303.56
2023-01-06T01:11:46.841Z,98303.94
2023-01-06T01:14:16.731Z,98307.41
2023-01-06T01:16:44.693Z,98300.31
2023-01-06T01:19:13.095Z,98305.59
2023-01-06T01:21:40.704Z,98309.22
2023-01-06T01:24:09.083Z,98290.09
2023-01-06T01:26:36.662Z,98296.00
2023-01-06T01:29:04.544Z,98304.97
2023-01-06T01:31:32.249Z,98308.63
2023-01-06T01:34:01.093Z,98298.22
2023-01-06T01:36:28.593Z,98291.22
2023-01-06T01:38:58.028Z,98301.81
2023-01-06T01:41:27.732Z,98288.31
2023-01-06T01:43:55.213Z,98287.28
2023-01-06T01:46:28.515Z,98292.13
2023-01-06T01:49:00.494Z,98299.25
2023-01-06T01:51:33.571Z,98289.59
2023-01-06T01:54:05.981Z,98297.09
2023-01-06T01:56:36.257Z,98290.16
2023-01-06T01:59:08.747Z,98290.53
2023-01-06T02:01:36.826Z,98284.81
2023-01-06T02:04:05.177Z,98289.06
2023-01-06T02:06:32.982Z,98278.59
2023-01-06T02:09:17.815Z,98287.09
2023-01-06T02:11:47.600Z,98283.06
2023-01-06T02:14:18.791Z,98274.84
2023-01-06T02:17:01.190Z,98277.25
2023-01-06T02:19:40.890Z,98261.94
2023-01-06T02:22:26.708Z,98258.31
2023-01-06T02:25:08.083Z,98241.78
2023-01-06T02:27:48.909Z,98243.88
2023-01-06T02:30:57.144Z,98248.16
2023-01-06T02:33:36.505Z,98244.72
2023-01-06T02:36:04.823Z,98237.75
2023-01-06T02:38:53.938Z,98229.66
2023-01-06T02:41:30.660Z,98219.47
2023-01-06T02:44:01.254Z,98228.84
2023-01-06T02:46:56.751Z,98219.91
2023-01-06T02:49:50.052Z,98213.78
2023-01-06T02:52:26.370Z,98209.97
2023-01-06T02:55:10.071Z,98203.03
2023-01-06T02:57:42.408Z,98208.94
2023-01-06T03:00:17.844Z,98212.84
2023-01-06T03:02:52.011Z,98206.56
2023-01-06T03:05:20.412Z,98211.50
2023-01-06T03:07:49.608Z,98206.66
2023-01-06T03:10:21.557Z,98206.66
2023-01-06T03:13:32.631Z,98210.31
2023-01-06T03:16:01.281Z,98209.94
2023-01-06T03:18:30.547Z,98201.16
2023-01-06T03:21:03.078Z,98196.63
2023-01-06T03:23:30.696Z,98199.63
2023-01-06T03:25:58.274Z,98193.53
2023-01-06T03:28:27.197Z,98190.72
2023-01-06T03:31:14.292Z,98182.78
2023-01-06T03:33:59.350Z,98174.56
2023-01-06T03:36:39.385Z,98165.56
2023-01-06T03:39:20.776Z,98175.13
2023-01-06T03:42:35.302Z,98173.88
2023-01-06T03:45:38.056Z,98179.59
2023-01-06T03:48:22.973Z,98173.19
2023-01-06T03:50:59.627Z,98175.72
2023-01-06T03:53:45.851Z,98171.56
2023-01-06T03:56:31.013Z,98181.59
2023-01-06T03:59:05.427Z,98173.91
2023-01-06T04:01:33.565Z,98172.91
2023-01-06T04:04:02.008Z,98171.84
2023-01-06T04:06:30.482Z,98153.13
2023-01-06T04:08:58.978Z,98152.94
2023-01-06T04:11:45.799Z,98144.63
2023-01-06T04:14:14.131Z,98155.44
2023-01-06T04:16:41.710Z,98155.69
2023-01-06T04:19:09.830Z,98154.69
2023-01-06T04:21:37.981Z,98149.25
2023-01-06T04:24:07.088Z,98145.84
2023-01-06T04:26:36.365Z,98138.16
2023-01-06T04:29:04.137Z,98144.25
2023-01-06T04:31:34.042Z,98143.44
2023-01-06T04:34:03.141Z,98142.25
2023-01-06T04:36:31.975Z,98140.84
2023-01-06T04:38:59.782Z,98136.81
2023-01-06T04:41:27.172Z,98131.16
2023-01-06T04:43:57.132Z,98132.59
2023-01-06T04:46:25.547Z,98128.75
2023-01-06T04:48:53.037Z,98129.97
2023-01-06T04:51:20.595Z,98133.47
2023-01-06T04:53:48.019Z,98126.94
2023-01-06T04:56:15.654Z,98125.56
2023-01-06T04:58:43.251Z,98125.19
2023-01-06T05:01:12.959Z,98118.88
2023-01-06T05:03:41.252Z,98121.13
2023-01-06T05:06:10.627Z,98111.16
2023-01-06T05:08:39.566Z,98112.78
2023-01-06T05:11:09.888Z,98114.22
2023-01-06T05:13:37.463Z,98109.34
2023-01-06T05:16:10.385Z,98113.25
2023-01-06T05:18:38.080Z,98103.47
2023-01-06T05:21:05.558Z,98099.00
2023-01-06T05:23:33.373Z,98114.72
2023-01-06T05:26:00.840Z,98109.22
2023-01-06T05:28:29.916Z,98109.47
2023-01-06T05:31:05.211Z,98101.53
2023-01-06T05:37:45.492Z,98085.81
2023-01-06T05:40:12.953Z,98085.00
2023-01-06T05:42:40.354Z,98091.53
2023-01-06T05:45:08.738Z,98087.66
2023-01-06T05:47:36.139Z,98086.28
2023-01-06T05:50:04.911Z,98083.63
2023-01-06T05:52:32.398Z,98080.97
2023-01-06T05:54:59.863Z,98090.53
2023-01-06T05:57:27.365Z,98081.38
2023-01-06T05:59:54.888Z,98080.13
2023-01-06T06:02:22.348Z,98070.78
2023-01-06T06:04:49.898Z,98069.75
2023-01-06T06:07:17.555Z,98067.09
2023-01-06T06:09:45.125Z,98070.78
2023-01-06T06:12:13.537Z,98066.28
2023-01-06T06:14:41.013Z,98071.75
2023-01-06T06:17:08.472Z,98066.28
2023-01-06T06:19:35.949Z,98075.66
2023-01-06T06:22:03.453Z,98070.78
2023-01-06T06:24:31.031Z,98069.56
2023-01-06T06:27:01.155Z,98073.69
2023-01-06T06:29:28.712Z,98071.22
2023-01-06T06:31:56.204Z,98072.88
2023-01-06T06:34:23.784Z,98066.75
2023-01-06T06:36:51.352Z,98068.19
2023-01-06T06:39:19.006Z,98068.81
2023-01-06T06:41:46.436Z,98067.78
2023-01-06T06:44:13.963Z,98073.50
2023-01-06T06:46:42.763Z,98066.78
2023-01-06T06:49:10.374Z,98063.09
2023-01-06T06:51:37.832Z,98059.25
2023-01-06T06:54:05.442Z,98066.38
2023-01-06T06:56:33.054Z,98058.03
2023-01-06T06:59:00.613Z,98060.44
2023-01-06T07:01:28.147Z,98058.19
2023-01-06T07:03:55.669Z,98057.81
2023-01-06T07:06:27.911Z,98058.84
2023-01-06T07:08:56.220Z,98062.69
2023-01-06T07:11:23.970Z,98062.69
2023-01-06T07:13:51.555Z,98063.91
2023-01-06T07:16:20.034Z,98062.06
2023-01-06T07:18:47.612Z,98053.94
2023-01-06T07:21:15.070Z,98054.13
2023-01-06T07:23:42.753Z,98064.09
2023-01-06T07:26:11.953Z,98060.22
2023-01-06T07:28:39.457Z,98060.22
2023-01-06T07:31:07.001Z,98057.41
2023-01-06T07:33:34.669Z,98059.00
2023-01-06T07:36:02.228Z,98056.19
2023-01-06T07:38:29.751Z,98058.00
2023-01-06T07:41:01.757Z,98050.44
2023-01-06T07:43:29.722Z,98047.59
2023-01-06T07:45:57.738Z,98045.16
2023-01-06T07:48:25.247Z,98037.22
2023-01-06T07:50:52.688Z,98038.44
2023-01-06T07:53:20.167Z,98038.88
2023-01-06T07:55:52.816Z,98039.50
2023-01-06T07:58:20.817Z,98037.44
2023-01-06T08:00:48.260Z,98038.28
2023-01-06T08:03:16.118Z,98032.75
2023-01-06T08:05:43.986Z,98026.22
2023-01-06T08:08:12.652Z,98026.84
2023-01-06T08:10:41.945Z,98022.97
2023-01-06T08:13:10.333Z,98025.81
2023-01-06T08:15:39.648Z,98022.72
2023-01-06T08:18:07.818Z,98029.84
2023-01-06T08:20:35.403Z,98028.41
2023-01-06T08:23:02.998Z,98028.34
2023-01-06T08:25:30.530Z,98018.50
2023-01-06T08:28:00.047Z,98022.78
2023-01-06T08:30:28.081Z,98024.78
2023-01-06T08:33:00.071Z,98031.13
2023-01-06T08:35:27.628Z,98024.16
2023-01-06T08:37:55.091Z,98032.09
2023-01-06T08:40:23.002Z,98034.16
2023-01-06T08:42:50.480Z,98030.22
2023-01-06T08:45:18.131Z,98029.19
2023-01-06T08:47:45.636Z,98018.72
2023-01-06T08:50:13.198Z,98021.75
2023-01-06T08:52:40.631Z,98017.44
2023-01-06T08:55:08.245Z,98009.22
2023-01-06T08:57:35.680Z,98009.22
2023-01-06T09:00:06.213Z,98009.00
2023-01-06T09:02:33.787Z,98015.88
2023-01-06T09:05:01.317Z,98026.50
2023-01-06T09:07:29.050Z,98031.53
2023-01-06T09:09:56.648Z,98030.53
2023-01-06T09:12:24.167Z,98036.00
2023-01-06T09:14:51.689Z,98033.31
2023-01-06T09:17:19.194Z,98034.25
2023-01-06T09:19:46.733Z,98022.00
2023-01-06T09:22:14.332Z,98026.47
2023-01-06T09:24:41.837Z,98022.31
2023-01-06T09:27:09.431Z,98028.63
2023-01-06T09:29:36.866Z,98032.44
2023-01-06T09:32:04.633Z,98031.75
2023-01-06T09:34:32.103Z,98033.34
2023-01-06T09:36:59.796Z,98036.22
2023-01-06T09:39:27.418Z,98039.31
2023-01-06T09:42:16.521Z,98040.78
2023-01-06T09:44:53.854Z,98026.31
2023-01-06T09:47:28.372Z,98022.00
2023-01-06T09:50:09.230Z,98032.44
2023-01-06T09:52:43.001Z,98017.00
2023-01-06T09:55:44.352Z,98011.97
2023-01-06T09:58:22.570Z,98007.97
2023-01-06T10:00:55.391Z,98006.22
2023-01-06T10:03:25.270Z,98012.00
2023-01-06T10:06:19.846Z,98007.72
2023-01-06T10:08:56.350Z,98011.09
2023-01-06T10:11:32.881Z,98005.59
2023-01-06T10:14:03.155Z,97991.41
2023-01-06T10:16:57.791Z,97981.34
2023-01-06T10:19:38.873Z,97976.59
2023-01-06T10:22:39.882Z,97978.53
2023-01-06T10:25:12.718Z,97964.97
2023-01-06T10:27:56.523Z,97975.28
2023-01-06T10:30:43.849Z,97969.38
2023-01-06T10:33:24.293Z,97968.56
2023-01-06T10:35:54.252Z,97974.84
2023-01-06T10:38:34.127Z,97958.84
2023-01-06T10:41:32.882Z,97953.25
2023-01-06T10:44:00.912Z,97958.13
2023-01-06T10:46:34.208Z,97956.72
2023-01-06T10:49:03.938Z,97950.69
2023-01-06T10:51:45.708Z,97937.78
2023-01-06T10:54:18.030Z,97946.97
2023-01-06T10:57:00.487Z,97933.28
2023-01-06T10:59:29.175Z,97935.22
2023-01-06T11:01:57.699Z,97927.75
2023-01-06T11:04:28.043Z,97933.44
2023-01-06T11:06:56.681Z,97929.16
2023-01-06T11:09:34.363Z,97924.84
2023-01-06T11:12:10.309Z,97923.44
2023-01-06T11:14:39.418Z,97917.09
2023-01-06T11:17:10.112Z,97916.72
2023-01-06T11:19:40.603Z,97919.59
2023-01-06T11:22:40.014Z,97914.63
2023-01-06T11:25:23.116Z,97926.84
2023-01-06T11:28:09.350Z,97921.06
2023-01-06T11:30:54.011Z,97923.38
2023-01-06T11:33:25.224Z,97918.97
2023-01-06T11:35:53.298Z,97920.03
2023-01-06T11:38:22.383Z,97917.00
2023-01-06T11:40:54.083Z,97902.97
2023-01-06T11:43:31.610Z,97906.25
2023-01-06T11:46:07.013Z,97905.09
2023-01-06T11:48:40.580Z,97889.53
2023-01-06T11:51:09.430Z,97913.28
2023-01-06T11:53:38.946Z,97926.41
2023-01-06T11:56:06.407Z,97906.69
2023-01-06T11:58:48.726Z,97915.28
2023-01-06T12:01:41.068Z,97916.50
2023-01-06T12:04:14.546Z,97923.44
2023-01-06T12:06:44.489Z,97913.50
2023-01-06T12:09:20.142Z,97918.69
2023-01-06T12:11:56.127Z,97925.25
2023-01-06T12:14:36.971Z,97912.59
2023-01-06T12:17:22.013Z,97907.84
2023-01-06T12:20:08.143Z,97900.28
2023-01-06T12:22:40.789Z,97899.22
2023-01-06T12:25:35.639Z,97902.84
2023-01-06T12:28:20.290Z,97893.34
2023-01-06T12:31:01.659Z,97894.25
2023-01-06T12:33:56.838Z,97900.84
2023-01-06T12:36:28.951Z,97900.28
2023-01-06T12:39:02.924Z,97895.16
2023-01-06T12:41:39.903Z,97891.59
2023-01-06T12:44:16.519Z,97899.22
2023-01-06T12:46:57.064Z,97903.75
2023-01-06T12:49:36.578Z,97904.47
2023-01-06T12:52:10.732Z,97898.78
2023-01-06T12:54:38.713Z,97908.94
2023-01-06T12:57:30.974Z,97901.50
2023-01-06T13:00:33.889Z,97900.25
2023-01-06T13:03:35.882Z,97902.59
2023-01-06T13:06:15.381Z,97905.72
2023-01-06T13:09:01.366Z,97903.03
2023-01-06T13:11:50.884Z,97907.56
2023-01-06T13:14:29.210Z,97911.13
2023-01-06T13:17:05.131Z,97906.91
2023-01-06T13:19:53.802Z,97908.19
2023-01-06T13:22:56.944Z,97921.16
2023-01-06T13:25:27.140Z,97930.44
2023-01-06T13:28:06.590Z,97917.84
2023-01-06T13:30:58.977Z,97904.53
2023-01-06T13:33:34.951Z,97894.84
2023-01-06T13:36:36.098Z,97908.81
2023-01-06T13:39:13.210Z,97906.22
2023-01-06T13:41:43.909Z,97906.78
2023-01-06T13:44:20.435Z,97925.16
2023-01-06T13:46:50.892Z,97924.72
2023-01-06T13:49:19.678Z,97924.91
2023-01-06T13:51:47.916Z,97915.00
2023-01-06T13:54:40.050Z,97916.91
2023-01-06T13:57:22.750Z,97903.78
2023-01-06T14:00:17.245Z,97901.31
2023-01-06T14:02:50.999Z,97909.53
2023-01-06T14:05:24.154Z,97898.47
2023-01-06T14:07:58.031Z,97909.53
2023-01-06T14:10:45.996Z,97899.75
2023-01-06T14:13:24.334Z,97906.47
2023-01-06T14:15:58.853Z,97914.09
2023-01-06T14:18:52.458Z,97923.91
2023-01-06T14:21:30.129Z,97919.84
2023-01-06T14:24:06.795Z,97923.69
2023-01-06T14:27:03.949Z,97938.81
2023-01-06T14:29:40.968Z,97937.41
2023-01-06T14:32:28.443Z,97932.88
2023-01-06T14:35:02.887Z,97923.50
2023-01-06T14:37:39.082Z,97924.72
2023-01-06T14:40:07.912Z,97928.63
2023-01-06T14:42:42.140Z,97920.44
2023-01-06T14:45:18.157Z,97929.44
2023-01-06T14:47:50.801Z,97934.19
2023-01-06T14:50:21.372Z,97931.16
2023-01-06T14:53:01.823Z,97932.84
2023-01-06T14:55:35.808Z,97935.06
2023-01-06T14:58:03.370Z,97938.72
2023-01-06T15:00:33.612Z,97942.25
2023-01-06T15:03:05.482Z,97939.59
2023-01-06T15:05:38.021Z,97946.56
2023-01-06T15:08:17.589Z,97956.16
2023-01-06T15:10:50.458Z,97956.00
2023-01-06T15:13:26.968Z,97961.75
2023-01-06T15:16:06.479Z,97963.38
2023-01-06T15:18:35.940Z,97954.00
2023-01-06T15:21:04.077Z,97963.22
2023-01-06T15:23:31.669Z,97960.97
2023-01-06T15:25:59.139Z,97959.78
2023-01-06T15:28:32.039Z,97952.81
2023-01-06T15:31:01.256Z,97951.44
2023-01-06T15:33:36.742Z,97958.13
2023-01-06T15:36:05.389Z,97955.28
2023-01-06T15:38:35.541Z,97960.38
2023-01-06T15:41:05.336Z,97964.06
2023-01-06T15:43:50.089Z,97969.00
2023-01-06T15:46:17.796Z,97972.91
2023-01-06T15:48:47.729Z,97975.75
2023-01-06T15:51:18.597Z,97979.03
2023-01-06T15:53:55.980Z,97980.28
2023-01-06T15:56:28.534Z,97980.47
2023-01-06T15:58:59.179Z,97981.31
2023-01-06T16:01:27.185Z,97988.69
2023-01-06T16:03:58.484Z,97998.13
2023-01-06T16:06:34.846Z,98002.00
2023-01-06T16:09:20.436Z,98000.16
2023-01-06T16:12:19.131Z,97999.16
2023-01-06T16:14:49.427Z,98001.44
2023-01-06T16:17:23.619Z,98009.59
2023-01-06T16:20:03.072Z,97998.16
2023-01-06T16:22:55.282Z,98003.09
2023-01-06T16:25:22.914Z,98001.44
2023-01-06T16:27:52.331Z,98012.50
2023-01-06T16:30:22.112Z,98007.41
2023-01-06T16:32:52.706Z,98018.03
2023-01-06T16:35:29.272Z,98017.84
2023-01-06T16:37:57.435Z,98028.69
2023-01-06T16:40:26.966Z,98034.59
2023-01-06T16:43:02.221Z,98029.09
2023-01-06T16:45:32.500Z,98025.41
2023-01-06T16:48:00.304Z,98033.38
2023-01-06T16:50:31.225Z,98029.53
2023-01-06T16:53:11.652Z,98033.59
2023-01-06T16:55:40.939Z,98046.50
2023-01-06T16:58:17.798Z,98044.47
2023-01-06T17:00:51.436Z,98036.94
2023-01-06T17:03:24.816Z,98034.28
2023-01-06T17:05:53.530Z,98045.50
2023-01-06T17:08:27.890Z,98044.72
2023-01-06T17:10:56.294Z,98042.47
2023-01-06T17:13:35.831Z,98045.72
2023-01-06T17:16:16.637Z,98042.50
2023-01-06T17:18:44.770Z,98046.16
2023-01-06T17:21:15.528Z,98047.19
2023-01-06T17:23:48.143Z,98050.66
2023-01-06T17:26:18.001Z,98062.31
2023-01-06T17:28:46.830Z,98061.28
2023-01-06T17:31:30.735Z,98059.22
2023-01-06T17:34:09.983Z,98053.69
2023-01-06T17:36:40.048Z,98061.66
2023-01-06T17:39:38.849Z,98071.09
2023-01-06T17:42:12.378Z,98072.31
2023-01-06T17:44:54.171Z,98074.16
2023-01-06T17:47:21.617Z,98077.22
2023-01-06T17:49:59.475Z,98071.31
2023-01-06T17:52:37.712Z,98078.66
2023-01-06T17:55:45.299Z,98072.53
2023-01-06T17:58:18.463Z,98074.56
2023-01-06T18:00:46.826Z,98071.91
2023-01-06T18:03:33.556Z,98075.19
2023-01-06T18:06:26.427Z,98074.19
2023-01-06T18:09:18.919Z,98077.66
2023-01-06T18:11:47.532Z,98079.50
2023-01-06T18:14:19.063Z,98089.09
2023-01-06T18:16:48.226Z,98081.34
2023-01-06T18:19:37.678Z,98092.56
2023-01-06T18:22:20.432Z,98086.44
2023-01-06T18:24:55.228Z,98085.81
2023-01-06T18:27:26.143Z,98076.66
2023-01-06T18:29:58.762Z,98086.03
2023-01-06T18:32:33.629Z,98090.53
2023-01-06T18:35:04.466Z,98094.00
2023-01-06T18:37:35.496Z,98093.38
2023-01-06T18:40:07.008Z,98101.97
2023-01-06T18:42:41.257Z,98103.59
2023-01-06T18:45:08.794Z,98108.72
2023-01-06T18:47:38.000Z,98111.13
2023-01-06T18:50:24.150Z,98112.78
2023-01-06T18:53:12.716Z,98110.13
2023-01-06T18:55:45.593Z,98110.72
2023-01-06T18:58:46.510Z,98117.06
2023-01-06T19:01:28.301Z,98105.25
2023-01-06T19:04:06.212Z,98112.16
2023-01-06T19:06:38.474Z,98105.84
2023-01-06T19:09:19.811Z,98115.84
2023-01-06T19:11:55.970Z,98100.13
2023-01-06T19:14:23.730Z,98109.31
2023-01-06T19:16:56.747Z,98110.94
2023-01-06T19:19:40.398Z,98122.19
2023-01-06T19:22:14.282Z,98116.69
2023-01-06T19:24:45.334Z,98134.22
2023-01-06T19:27:41.737Z,98140.75
2023-01-06T19:30:41.356Z,98135.25
2023-01-06T19:33:34.833Z,98126.06
2023-01-06T19:36:05.664Z,98125.03
2023-01-06T19:38:39.883Z,98129.53
2023-01-06T19:41:29.443Z,98126.06
2023-01-06T19:44:12.716Z,98125.22
2023-01-06T19:46:42.804Z,98135.25
2023-01-06T19:49:40.848Z,98136.69
2023-01-06T19:52:38.043Z,98133.63
2023-01-06T19:55:14.779Z,98137.91
2023-01-06T19:57:49.839Z,98146.91
2023-01-06T20:00:28.082Z,98148.53
2023-01-06T20:02:58.449Z,98146.69
2023-01-06T20:05:28.035Z,98147.28
2023-01-06T20:07:55.723Z,98158.91
2023-01-06T20:10:23.777Z,98158.50
2023-01-06T20:12:51.270Z,98160.50
2023-01-06T20:15:18.783Z,98172.91
2023-01-06T20:17:46.320Z,98163.97
2023-01-06T20:20:13.767Z,98158.81
2023-01-06T20:22:41.365Z,98166.53
2023-01-06T20:25:09.113Z,98153.09
2023-01-06T20:27:36.671Z,98158.59
2023-01-06T20:30:05.156Z,98172.88
2023-01-06T20:32:32.722Z,98165.56
2023-01-06T20:35:00.246Z,98177.97
2023-01-06T20:37:27.732Z,98178.19
2023-01-06T20:39:55.172Z,98173.28
2023-01-06T20:42:22.628Z,98181.41
2023-01-06T20:44:50.223Z,98182.41
2023-01-06T20:47:17.755Z,98178.94
2023-01-06T20:49:45.213Z,98184.84
2023-01-06T20:52:12.870Z,98180.16
2023-01-06T20:54:40.257Z,98185.25
2023-01-06T20:57:07.847Z,98180.16
2023-01-06T20:59:35.565Z,98187.09
2023-01-06T21:02:03.315Z,98185.88
2023-01-06T21:04:34.259Z,98186.91
2023-01-06T21:07:02.223Z,98193.19
2023-01-06T21:09:29.911Z,98188.94
2023-01-06T21:11:57.703Z,98196.47
2023-01-06T21:14:25.129Z,98196.25
2023-01-06T21:16:52.714Z,98189.94
2023-01-06T21:19:20.247Z,98187.72
2023-01-06T21:21:48.631Z,98191.56
2023-01-06T21:24:16.531Z,98186.50
2023-01-06T21:26:44.103Z,98184.66
2023-01-06T21:29:11.651Z,98181.38
2023-01-06T21:31:40.586Z,98184.03
2023-01-06T21:34:08.042Z,98181.78
2023-01-06T21:36:35.642Z,98183.59
2023-01-06T21:39:04.445Z,98181.97
2023-01-06T21:41:50.531Z,98185.44
2023-01-06T21:44:18.042Z,98178.69
2023-01-06T21:46:45.562Z,98185.84
2023-01-06T21:49:13.193Z,98184.38
2023-01-06T21:51:41.203Z,98181.72
2023-01-06T21:54:08.879Z,98187.03
2023-01-06T21:56:36.671Z,98183.75
2023-01-06T21:59:04.132Z,98184.00
2023-01-06T22:01:31.818Z,98186.44
2023-01-06T22:03:59.431Z,98183.84
2023-01-06T22:06:29.829Z,98183.44
2023-01-06T22:09:00.347Z,98188.75
2023-01-06T22:11:29.218Z,98194.22
2023-01-06T22:13:57.324Z,98186.44
2023-01-06T22:16:25.694Z,98194.59
2023-01-06T22:18:55.070Z,98194.84
2023-01-06T22:21:23.152Z,98199.75
2023-01-06T22:23:53.464Z,98207.69
2023-01-06T22:26:20.972Z,98200.94
2023-01-06T22:28:48.495Z,98200.75
2023-01-06T22:31:16.049Z,98195.66
2023-01-06T22:33:44.433Z,98199.94
2023-01-06T22:36:12.004Z,98199.13
2023-01-06T22:38:39.565Z,98200.47
2023-01-06T22:41:08.474Z,98199.25
2023-01-06T22:43:35.916Z,98198.44
2023-01-06T22:46:03.570Z,98193.38
2023-01-06T22:48:31.082Z,98198.28
2023-01-06T22:51:03.893Z,98196.31
2023-01-06T22:53:32.377Z,98198.50
2023-01-06T22:56:05.009Z,98205.84
2023-01-06T22:58:34.302Z,98213.03
2023-01-06T23:01:02.701Z,98213.63
2023-01-06T23:03:30.347Z,98205.50
2023-01-06T23:06:00.101Z,98202.84
2023-01-06T23:08:29.651Z,98208.53
2023-01-06T23:11:02.187Z,98204.84
2023-01-06T23:13:30.645Z,98203.66
2023-01-06T23:16:07.292Z,98205.50
2023-01-06T23:18:37.041Z,98208.78
2023-01-06T23:21:11.198Z,98215.31
2023-01-06T23:23:40.655Z,98203.88
2023-01-06T23:26:10.777Z,98202.69
2023-01-06T23:28:38.592Z,98200.44
2023-01-06T23:31:10.701Z,98206.34
2023-01-06T23:33:49.793Z,98204.72
2023-01-06T23:36:19.628Z,98210.03
2023-01-06T23:38:47.702Z,98205.31
2023-01-06T23:41:17.684Z,98204.88
2023-01-06T23:43:45.603Z,98204.03
2023-01-06T23:46:16.456Z,98202.41
2023-01-06T23:48:44.062Z,98192.78
2023-01-06T23:51:12.903Z,98189.75
2023-01-06T23:53:40.884Z,98190.78
2023-01-06T23:56:19.649Z,98195.69
2023-01-06T23:58:49.175Z,98193.44
